Decoded Metar for UUBC ( in ) (IATA:) | Meteo·Mobile Aviation Weather
aviador You're here:

UUBC Decoded Metar

in
Report Time2019-02-17 05:00:00
UTC Time2019-02-17 05:19:52
Flight Rules vfr VFR
Wind260° at 14 kt
W.Rank260° ranks 1
Current wind is above 260° avg. (7.8)
Visibility9999 m
Phenomena:N/A
Clouds:N/A
Expected CloudBase > 1,200 ft AGL from Temp-Dew spread
CeilingNone
Temp01°C
Dew Point-2°C (81% RH)
AAT-6.3°C
QNH1002 hPa
Raw Report
METAR UUBC 170500Z 26007MPS CAVOK 01/M02 Q1002 R31/////// NOSIG RMK
QFE735/0980=

Extra information for UUBC:More info

Social comments